createdAt,value
2023-04-12T00:02:00.305Z,86.20
2023-04-12T00:04:29.054Z,86.10
2023-04-12T00:06:56.635Z,86.20
2023-04-12T00:09:23.598Z,86.10
2023-04-12T00:11:50.597Z,86.20
2023-04-12T00:14:17.549Z,86.20
2023-04-12T00:16:44.564Z,86.20
2023-04-12T00:19:11.614Z,86.20
2023-04-12T00:21:38.640Z,86.30
2023-04-12T00:24:05.775Z,86.30
2023-04-12T00:26:32.738Z,86.30
2023-04-12T00:28:59.786Z,86.30
2023-04-12T00:31:26.831Z,86.30
2023-04-12T00:33:54.160Z,86.20
2023-04-12T00:36:22.224Z,86.30
2023-04-12T00:38:49.165Z,86.30
2023-04-12T00:41:16.229Z,86.30
2023-04-12T00:43:43.248Z,86.30
2023-04-12T00:46:12.374Z,86.30
2023-04-12T00:48:40.220Z,86.30
2023-04-12T00:51:07.907Z,86.30
2023-04-12T00:53:35.393Z,86.30
2023-04-12T00:56:04.320Z,86.30
2023-04-12T00:58:32.028Z,86.30
2023-04-12T01:00:59.316Z,86.30
2023-04-12T01:03:27.905Z,86.30
2023-04-12T01:06:09.610Z,86.30
2023-04-12T01:08:45.969Z,86.30
2023-04-12T01:11:25.351Z,86.40
2023-04-12T01:14:24.051Z,86.40
2023-04-12T01:16:56.445Z,86.40
2023-04-12T01:19:59.094Z,86.40
2023-04-12T01:22:55.008Z,86.40
2023-04-12T01:25:35.850Z,86.40
2023-04-12T01:28:07.531Z,86.50
2023-04-12T01:30:34.855Z,86.50
2023-04-12T01:33:05.521Z,86.60
2023-04-12T01:35:35.101Z,86.60
2023-04-12T01:38:03.545Z,86.60
2023-04-12T01:40:31.532Z,86.60
2023-04-12T01:43:13.282Z,86.70
2023-04-12T01:45:40.812Z,86.60
2023-04-12T01:48:12.615Z,86.60
2023-04-12T01:50:55.492Z,86.60
2023-04-12T01:53:40.658Z,86.60
2023-04-12T01:56:09.823Z,86.60
2023-04-12T01:58:39.791Z,86.60
2023-04-12T02:01:08.469Z,86.60
2023-04-12T02:03:42.824Z,86.60
2023-04-12T02:06:10.993Z,86.60
2023-04-12T02:08:38.227Z,86.60
2023-04-12T02:11:09.557Z,86.60
2023-04-12T02:13:36.695Z,86.60
2023-04-12T02:16:10.233Z,86.60
2023-04-12T02:18:37.317Z,86.60
2023-04-12T02:21:06.609Z,86.60
2023-04-12T02:23:34.751Z,86.60
2023-04-12T02:26:01.714Z,86.60
2023-04-12T02:28:29.193Z,86.60
2023-04-12T02:30:56.541Z,86.60
2023-04-12T02:33:28.332Z,86.60
2023-04-12T02:35:57.536Z,86.60
2023-04-12T02:38:25.495Z,86.60
2023-04-12T02:40:52.581Z,86.60
2023-04-12T02:43:19.712Z,86.60
2023-04-12T02:45:51.950Z,86.60
2023-04-12T02:48:19.032Z,86.60
2023-04-12T02:50:46.361Z,86.50
2023-04-12T02:53:19.639Z,86.50
2023-04-12T02:55:54.206Z,86.40
2023-04-12T02:58:24.484Z,86.40
2023-04-12T03:00:52.967Z,86.30
2023-04-12T03:03:28.588Z,86.10
2023-04-12T03:05:59.563Z,86.10
2023-04-12T03:08:26.762Z,85.90
2023-04-12T03:10:57.903Z,85.80
2023-04-12T03:13:26.599Z,85.40
2023-04-12T03:15:59.976Z,85.10
2023-04-12T03:18:33.594Z,84.90
2023-04-12T03:21:02.515Z,84.80
2023-04-12T03:23:30.618Z,84.60
2023-04-12T03:26:12.369Z,84.50
2023-04-12T03:28:48.025Z,84.40
2023-04-12T03:31:15.570Z,84.40
2023-04-12T03:33:44.332Z,84.40
2023-04-12T03:36:24.022Z,84.40
2023-04-12T03:39:11.280Z,84.30
2023-04-12T03:41:39.483Z,84.30
2023-04-12T03:44:07.656Z,84.30
2023-04-12T03:46:36.213Z,84.30
2023-04-12T03:49:07.605Z,84.30
2023-04-12T03:51:35.351Z,84.30
2023-04-12T03:54:04.582Z,84.30
2023-04-12T03:56:51.749Z,84.30
2023-04-12T03:59:24.858Z,84.30
2023-04-12T04:01:52.333Z,84.30
2023-04-12T04:04:21.155Z,84.30
2023-04-12T04:06:51.180Z,84.30
2023-04-12T04:09:19.077Z,84.20
2023-04-12T04:11:47.102Z,84.20
2023-04-12T04:14:14.269Z,84.20
2023-04-12T04:16:41.479Z,84.20
2023-04-12T04:19:09.378Z,84.20
2023-04-12T04:21:36.445Z,84.20
2023-04-12T04:24:04.246Z,84.10
2023-04-12T04:26:38.332Z,84.10
2023-04-12T04:29:23.733Z,84.10
2023-04-12T04:31:51.346Z,84.10
2023-04-12T04:34:19.316Z,84.10
2023-04-12T04:36:48.188Z,84.10
2023-04-12T04:39:23.044Z,84.00
2023-04-12T04:41:54.897Z,83.90
2023-04-12T04:44:45.276Z,83.90
2023-04-12T04:47:12.265Z,83.90
2023-04-12T04:49:39.230Z,83.90
2023-04-12T04:52:21.482Z,83.80
2023-04-12T04:54:49.684Z,83.80
2023-04-12T04:57:17.020Z,83.70
2023-04-12T04:59:44.790Z,83.70
2023-04-12T05:02:17.205Z,83.50
2023-04-12T05:04:45.360Z,83.50
2023-04-12T05:07:15.437Z,83.40
2023-04-12T05:09:45.531Z,83.30
2023-04-12T05:12:12.535Z,83.10
2023-04-12T05:14:48.146Z,83.00
2023-04-12T05:17:18.867Z,82.90
2023-04-12T05:19:45.822Z,82.80
2023-04-12T05:22:14.073Z,82.80
2023-04-12T05:24:41.274Z,82.70
2023-04-12T05:27:08.961Z,82.70
2023-04-12T05:29:35.981Z,82.60
2023-04-12T05:32:04.311Z,82.60
2023-04-12T05:34:31.413Z,82.60
2023-04-12T05:36:59.968Z,82.60
2023-04-12T05:39:31.844Z,82.70
2023-04-12T05:41:58.868Z,82.80
2023-04-12T05:44:26.900Z,82.80
2023-04-12T05:46:54.271Z,82.80
2023-04-12T05:49:21.352Z,82.90
2023-04-12T05:51:48.803Z,83.00
2023-04-12T05:54:21.702Z,83.00
2023-04-12T05:56:53.067Z,83.10
2023-04-12T05:59:20.219Z,83.30
2023-04-12T06:01:47.426Z,83.40
2023-04-12T06:04:19.088Z,83.50
2023-04-12T06:06:47.581Z,83.60
2023-04-12T06:09:15.663Z,83.80
2023-04-12T06:11:43.264Z,83.80
2023-04-12T06:14:11.735Z,83.90
2023-04-12T06:16:41.323Z,84.00
2023-04-12T06:19:08.855Z,84.10
2023-04-12T06:21:35.861Z,84.10
2023-04-12T06:24:02.931Z,84.10
2023-04-12T06:26:39.069Z,84.20
2023-04-12T06:29:07.030Z,84.20
2023-04-12T06:31:34.106Z,84.30
2023-04-12T06:34:01.359Z,84.30
2023-04-12T06:36:28.923Z,84.40
2023-04-12T06:38:56.195Z,84.30
2023-04-12T06:41:23.226Z,84.40
2023-04-12T06:43:59.541Z,84.40
2023-04-12T06:46:29.757Z,84.40
2023-04-12T06:48:57.235Z,84.40
2023-04-12T06:51:24.414Z,84.50
2023-04-12T06:53:51.454Z,84.50
2023-04-12T06:56:19.015Z,84.50
2023-04-12T06:58:46.182Z,84.60
2023-04-12T07:01:16.031Z,84.60
2023-04-12T07:03:43.194Z,84.60
2023-04-12T07:06:23.776Z,84.70
2023-04-12T07:08:52.712Z,84.60
2023-04-12T07:11:22.706Z,84.60
2023-04-12T07:13:51.381Z,84.60
2023-04-12T07:16:18.619Z,84.60
2023-04-12T07:18:45.944Z,84.60
2023-04-12T07:21:17.578Z,84.60
2023-04-12T07:23:44.876Z,84.60
2023-04-12T07:26:11.915Z,84.60
2023-04-12T07:28:39.627Z,84.50
2023-04-12T07:31:07.516Z,84.40
2023-04-12T07:33:36.632Z,84.30
2023-04-12T07:36:04.805Z,84.20
2023-04-12T07:38:31.971Z,84.00
2023-04-12T07:40:58.960Z,83.70
2023-04-12T07:43:26.202Z,83.50
2023-04-12T07:45:55.894Z,83.40
2023-04-12T07:48:23.221Z,83.30
2023-04-12T07:50:50.721Z,83.30
2023-04-12T07:53:21.965Z,83.40
2023-04-12T07:55:49.795Z,83.50
2023-04-12T07:58:17.830Z,83.50
2023-04-12T08:00:45.734Z,83.60
2023-04-12T08:03:14.247Z,83.30
2023-04-12T08:05:42.216Z,83.10
2023-04-12T08:08:12.390Z,82.50
2023-04-12T08:10:40.042Z,82.10
2023-04-12T08:13:07.479Z,82.00
2023-04-12T08:15:34.744Z,82.00
2023-04-12T08:18:02.641Z,81.80
2023-04-12T08:20:30.200Z,81.60
2023-04-12T08:22:57.181Z,81.20
2023-04-12T08:25:24.569Z,81.00
2023-04-12T08:27:51.610Z,80.90
2023-04-12T08:30:19.273Z,80.90
2023-04-12T08:32:46.471Z,81.00
2023-04-12T08:35:15.379Z,80.90
2023-04-12T08:37:42.390Z,80.80
2023-04-12T08:40:09.879Z,80.70
2023-04-12T08:42:38.160Z,80.40
2023-04-12T08:45:10.700Z,80.10
2023-04-12T08:47:44.657Z,80.00
2023-04-12T08:50:17.331Z,80.10
2023-04-12T08:52:44.407Z,79.90
2023-04-12T08:55:13.000Z,79.80
2023-04-12T08:57:42.156Z,79.90
2023-04-12T09:00:10.994Z,79.90
2023-04-12T09:02:38.918Z,79.80
2023-04-12T09:05:07.130Z,79.90
2023-04-12T09:07:34.676Z,79.80
2023-04-12T09:10:02.144Z,79.50
2023-04-12T09:12:29.405Z,79.00
2023-04-12T09:15:08.514Z,78.90
2023-04-12T09:17:39.196Z,78.60
2023-04-12T09:20:12.240Z,78.10
2023-04-12T09:22:44.459Z,77.00
2023-04-12T09:25:12.682Z,76.10
2023-04-12T09:27:52.926Z,75.80
2023-04-12T09:30:20.711Z,75.60
2023-04-12T09:32:53.538Z,75.50
2023-04-12T09:35:34.982Z,75.70
2023-04-12T09:38:09.219Z,75.90
2023-04-12T09:40:37.273Z,75.90
2023-04-12T09:43:04.584Z,76.00
2023-04-12T09:45:35.285Z,75.50
2023-04-12T09:48:02.423Z,75.00
2023-04-12T09:50:32.862Z,74.70
2023-04-12T09:53:01.715Z,74.60
2023-04-12T09:55:32.018Z,74.50
2023-04-12T09:58:04.013Z,74.40
2023-04-12T10:00:34.427Z,74.40
2023-04-12T10:03:02.185Z,74.80
2023-04-12T10:05:29.655Z,74.20
2023-04-12T10:08:00.520Z,73.60
2023-04-12T10:10:31.190Z,73.50
2023-04-12T10:12:58.633Z,72.90
2023-04-12T10:15:25.958Z,72.80
2023-04-12T10:17:58.705Z,72.80
2023-04-12T10:20:28.895Z,72.90
2023-04-12T10:22:57.792Z,73.20
2023-04-12T10:25:27.810Z,73.70
2023-04-12T10:27:54.838Z,74.20
2023-04-12T10:30:26.072Z,74.50
2023-04-12T10:33:05.600Z,75.10
2023-04-12T10:35:51.800Z,75.80
2023-04-12T10:38:19.708Z,75.90
2023-04-12T10:41:18.763Z,75.40
2023-04-12T10:43:49.904Z,75.20
2023-04-12T10:46:37.593Z,75.20
2023-04-12T10:49:12.359Z,75.00
2023-04-12T10:51:40.188Z,74.10
2023-04-12T10:54:19.020Z,74.20
2023-04-12T10:56:47.262Z,75.00
2023-04-12T10:59:20.999Z,76.10
2023-04-12T11:02:11.718Z,75.00
2023-04-12T11:05:05.410Z,74.60
2023-04-12T11:07:54.251Z,75.00
2023-04-12T11:10:39.900Z,75.30
2023-04-12T11:13:09.721Z,75.20
2023-04-12T11:15:39.899Z,74.70
2023-04-12T11:18:12.557Z,72.80
2023-04-12T11:20:43.048Z,71.70
2023-04-12T11:23:11.797Z,72.00
2023-04-12T11:25:39.037Z,72.60
2023-04-12T11:28:21.201Z,72.90
2023-04-12T11:30:55.318Z,72.90
2023-04-12T11:33:41.573Z,72.80
2023-04-12T11:36:12.799Z,72.50
2023-04-12T11:38:40.696Z,72.20
2023-04-12T11:41:09.154Z,71.70
2023-04-12T11:43:38.699Z,71.40
2023-04-12T11:46:06.427Z,71.20
2023-04-12T11:48:33.884Z,69.30
2023-04-12T11:51:11.138Z,67.70
2023-04-12T11:53:39.385Z,66.80
2023-04-12T11:56:06.862Z,65.10
2023-04-12T11:58:33.930Z,65.50
2023-04-12T12:01:01.610Z,65.80
2023-04-12T12:03:29.058Z,66.50
2023-04-12T12:05:56.693Z,67.10
2023-04-12T12:08:24.579Z,66.90
2023-04-12T12:11:04.077Z,67.50
2023-04-12T12:13:46.269Z,67.60
2023-04-12T12:16:13.476Z,68.10
2023-04-12T12:18:44.802Z,67.90
2023-04-12T12:21:13.795Z,67.40
2023-04-12T12:23:43.348Z,67.20
2023-04-12T12:26:18.991Z,67.10
2023-04-12T12:28:51.255Z,67.00
2023-04-12T12:31:27.474Z,67.30
2023-04-12T12:34:00.253Z,67.80
2023-04-12T12:36:38.856Z,68.20
2023-04-12T12:39:11.122Z,68.50
2023-04-12T12:41:40.041Z,68.40
2023-04-12T12:44:08.180Z,68.90
2023-04-12T12:49:06.029Z,68.70
2023-04-12T12:51:33.168Z,66.60
2023-04-12T12:54:01.057Z,65.10
2023-04-12T12:56:28.209Z,64.50
2023-04-12T12:58:55.370Z,64.20
2023-04-12T13:01:22.455Z,63.40
2023-04-12T13:03:51.020Z,62.80
2023-04-12T13:06:18.174Z,62.00
2023-04-12T13:08:45.407Z,61.20
2023-04-12T13:11:12.591Z,60.40
2023-04-12T13:13:39.615Z,59.60
2023-04-12T13:16:07.037Z,59.20
2023-04-12T13:18:34.024Z,58.40
2023-04-12T13:21:00.987Z,58.30
2023-04-12T13:23:27.993Z,58.50
2023-04-12T13:25:54.883Z,58.70
2023-04-12T13:28:22.061Z,58.80
2023-04-12T13:30:49.041Z,58.80
2023-04-12T13:33:19.983Z,57.00
2023-04-12T13:35:48.081Z,57.00
2023-04-12T13:38:15.184Z,58.10
2023-04-12T13:40:42.159Z,59.70
2023-04-12T13:43:09.100Z,62.00
2023-04-12T13:45:36.832Z,64.20
2023-04-12T13:48:03.981Z,65.20
2023-04-12T13:50:31.076Z,66.40
2023-04-12T13:52:58.056Z,67.20
2023-04-12T13:55:25.068Z,67.60
2023-04-12T13:57:51.992Z,68.20
2023-04-12T14:00:19.791Z,68.70
2023-04-12T14:02:46.896Z,69.20
2023-04-12T14:05:16.612Z,69.00
2023-04-12T14:07:43.632Z,68.30
2023-04-12T14:10:11.028Z,68.10
2023-04-12T14:12:38.104Z,67.90
2023-04-12T14:15:05.921Z,67.00
2023-04-12T14:17:33.253Z,65.50
2023-04-12T14:20:00.610Z,64.70
2023-04-12T14:22:28.215Z,64.60
2023-04-12T14:24:55.482Z,64.30
2023-04-12T14:27:22.610Z,64.00
2023-04-12T14:29:49.751Z,63.40
2023-04-12T14:32:17.128Z,62.70
2023-04-12T14:34:44.320Z,62.40
2023-04-12T14:37:11.382Z,62.20
2023-04-12T14:39:38.388Z,62.50
2023-04-12T14:42:06.138Z,62.20
2023-04-12T14:44:33.141Z,61.40
2023-04-12T14:47:00.206Z,60.60
2023-04-12T14:49:29.483Z,59.90
2023-04-12T14:51:57.924Z,59.20
2023-04-12T14:54:24.878Z,59.00
2023-04-12T14:56:55.533Z,58.50
2023-04-12T14:59:23.560Z,57.90
2023-04-12T15:01:52.680Z,58.30
2023-04-12T15:04:20.219Z,59.80
2023-04-12T15:06:47.535Z,60.00
2023-04-12T15:09:17.701Z,59.90
2023-04-12T15:11:49.425Z,59.40
2023-04-12T15:14:18.171Z,59.00
2023-04-12T15:16:49.391Z,58.30
2023-04-12T15:19:20.748Z,56.40
2023-04-12T15:21:55.279Z,55.20
2023-04-12T15:24:23.114Z,54.80
2023-04-12T15:26:52.500Z,53.80
2023-04-12T15:29:21.302Z,53.10
2023-04-12T15:31:48.411Z,51.10
2023-04-12T15:34:15.505Z,51.70
2023-04-12T15:36:43.882Z,52.20
2023-04-12T15:39:12.573Z,53.00
2023-04-12T15:41:41.766Z,53.40
2023-04-12T15:44:10.109Z,53.30
2023-04-12T15:46:37.060Z,53.20
2023-04-12T15:49:04.445Z,52.50
2023-04-12T15:51:32.422Z,53.00
2023-04-12T15:53:59.731Z,53.60
2023-04-12T15:56:26.987Z,54.20
2023-04-12T15:58:57.794Z,54.70
2023-04-12T16:01:25.557Z,55.00
2023-04-12T16:03:53.195Z,54.60
2023-04-12T16:06:21.167Z,51.80
2023-04-12T16:08:52.465Z,51.10
2023-04-12T16:11:21.937Z,52.00
2023-04-12T16:13:52.648Z,53.50
2023-04-12T16:16:23.370Z,53.40
2023-04-12T16:18:51.627Z,53.90
2023-04-12T16:21:20.672Z,54.20
2023-04-12T16:23:48.783Z,54.50
2023-04-12T16:26:22.043Z,54.90
2023-04-12T16:28:53.448Z,55.50
2023-04-12T16:31:21.404Z,56.30
2023-04-12T16:33:51.880Z,56.40
2023-04-12T16:36:19.231Z,56.70
2023-04-12T16:38:46.274Z,56.40
2023-04-12T16:41:13.413Z,55.50
2023-04-12T16:43:42.106Z,54.90
2023-04-12T16:46:11.098Z,54.90
2023-04-12T16:48:43.331Z,55.20
2023-04-12T16:51:10.382Z,55.10
2023-04-12T16:53:37.353Z,55.40
2023-04-12T16:56:07.275Z,55.60
2023-04-12T16:58:34.339Z,55.50
2023-04-12T17:01:02.244Z,55.20
2023-04-12T17:03:30.316Z,55.30
2023-04-12T17:05:58.304Z,55.40
2023-04-12T17:08:25.483Z,55.80
2023-04-12T17:10:52.525Z,56.30
2023-04-12T17:13:20.319Z,56.60
2023-04-12T17:15:50.550Z,56.80
2023-04-12T17:18:17.889Z,57.10
2023-04-12T17:20:45.367Z,57.70
2023-04-12T17:23:13.529Z,58.00
2023-04-12T17:25:41.832Z,58.10
2023-04-12T17:28:09.485Z,58.80
2023-04-12T17:30:36.686Z,58.90
2023-04-12T17:33:03.883Z,59.50
2023-04-12T17:35:31.136Z,59.80
2023-04-12T17:37:58.218Z,60.20
2023-04-12T17:40:25.536Z,60.60
2023-04-12T17:42:52.571Z,60.80
2023-04-12T17:45:21.729Z,61.20
2023-04-12T17:47:49.106Z,61.70
2023-04-12T17:50:16.150Z,62.20
2023-04-12T17:52:43.144Z,62.30
2023-04-12T17:55:10.687Z,62.60
2023-04-12T17:57:37.769Z,62.90
2023-04-12T18:00:09.609Z,63.00
2023-04-12T18:02:49.409Z,63.00
2023-04-12T18:05:16.998Z,63.60
2023-04-12T18:07:44.752Z,63.90
2023-04-12T18:10:15.727Z,63.90
2023-04-12T18:12:45.236Z,63.70
2023-04-12T18:15:12.747Z,63.80
2023-04-12T18:17:39.887Z,63.90
2023-04-12T18:20:11.488Z,64.30
2023-04-12T18:22:39.139Z,64.20
2023-04-12T18:25:07.767Z,64.00
2023-04-12T18:27:34.978Z,63.60
2023-04-12T18:30:03.508Z,63.90
2023-04-12T18:32:30.649Z,64.20
2023-04-12T18:34:57.739Z,64.50
2023-04-12T18:37:24.821Z,64.60
2023-04-12T18:39:53.508Z,64.60
2023-04-12T18:42:20.609Z,64.60
2023-04-12T18:44:47.595Z,64.40
2023-04-12T18:47:14.638Z,64.40
2023-04-12T18:49:41.576Z,63.90
2023-04-12T18:52:08.614Z,63.70
2023-04-12T18:54:35.598Z,63.90
2023-04-12T18:57:03.539Z,63.70
2023-04-12T18:59:30.714Z,63.60
2023-04-12T19:01:57.888Z,63.50
2023-04-12T19:04:24.944Z,64.40
2023-04-12T19:06:52.623Z,65.30
2023-04-12T19:09:19.800Z,67.30
2023-04-12T19:11:47.204Z,68.70
2023-04-12T19:14:14.318Z,69.10
2023-04-12T19:16:41.959Z,70.40
2023-04-12T19:19:09.224Z,71.10
2023-04-12T19:21:36.863Z,72.00
2023-04-12T19:24:04.768Z,72.20
2023-04-12T19:26:32.136Z,72.90
2023-04-12T19:28:59.936Z,73.10
2023-04-12T19:31:27.266Z,72.50
2023-04-12T19:33:56.354Z,72.00
2023-04-12T19:36:24.698Z,72.00
2023-04-12T19:38:52.232Z,72.00
2023-04-12T19:41:20.889Z,72.40
2023-04-12T19:43:48.090Z,72.20
2023-04-12T19:46:17.095Z,72.30
2023-04-12T19:48:45.435Z,73.00
2023-04-12T19:51:13.354Z,73.80
2023-04-12T19:53:40.476Z,73.80
2023-04-12T19:56:08.553Z,74.10
2023-04-12T19:58:35.842Z,74.10
2023-04-12T20:01:03.639Z,74.30
2023-04-12T20:03:31.991Z,74.30
2023-04-12T20:05:59.396Z,74.60
2023-04-12T20:08:28.544Z,74.60
2023-04-12T20:10:56.399Z,74.80
2023-04-12T20:13:23.601Z,74.80
2023-04-12T20:15:51.213Z,74.80
2023-04-12T20:18:18.677Z,74.80
2023-04-12T20:20:46.692Z,74.90
2023-04-12T20:23:14.247Z,75.10
2023-04-12T20:25:42.740Z,75.10
2023-04-12T20:28:10.121Z,75.40
2023-04-12T20:30:37.653Z,75.40
2023-04-12T20:33:05.540Z,75.20
2023-04-12T20:35:33.965Z,75.40
2023-04-12T20:38:01.865Z,75.60
2023-04-12T20:40:30.354Z,75.80
2023-04-12T20:42:57.869Z,76.10
2023-04-12T20:45:25.079Z,76.70
2023-04-12T20:47:52.928Z,77.10
2023-04-12T20:50:23.221Z,77.40
2023-04-12T20:52:52.344Z,77.80
2023-04-12T20:55:19.794Z,77.80
2023-04-12T20:57:46.939Z,78.30
2023-04-12T21:00:19.028Z,78.40
2023-04-12T21:02:46.855Z,78.60
2023-04-12T21:05:17.417Z,78.80
2023-04-12T21:07:46.892Z,78.90
2023-04-12T21:10:14.783Z,79.00
2023-04-12T21:12:42.855Z,79.20
2023-04-12T21:15:11.854Z,79.30
2023-04-12T21:17:39.391Z,79.30
2023-04-12T21:20:13.765Z,79.30
2023-04-12T21:22:43.116Z,79.40
2023-04-12T21:25:16.304Z,79.50
2023-04-12T21:27:45.761Z,79.70
2023-04-12T21:30:13.636Z,79.80
2023-04-12T21:32:41.444Z,80.00
2023-04-12T21:35:09.862Z,80.10
2023-04-12T21:37:38.935Z,80.40
2023-04-12T21:40:10.959Z,80.60
2023-04-12T21:42:39.034Z,81.10
2023-04-12T21:45:08.646Z,81.50
2023-04-12T21:47:36.266Z,81.60
2023-04-12T21:50:04.481Z,81.80
2023-04-12T21:52:31.618Z,81.80
2023-04-12T21:54:58.620Z,81.70
2023-04-12T21:57:25.744Z,81.70
2023-04-12T21:59:52.667Z,81.70
2023-04-12T22:02:19.793Z,81.70
2023-04-12T22:04:46.880Z,81.80
2023-04-12T22:07:17.558Z,82.10
2023-04-12T22:09:45.662Z,82.10
2023-04-12T22:12:13.345Z,82.10
2023-04-12T22:14:47.192Z,82.10
2023-04-12T22:17:14.920Z,82.20
2023-04-12T22:19:42.123Z,82.20
2023-04-12T22:22:09.809Z,82.30
2023-04-12T22:24:37.969Z,82.40
2023-04-12T22:27:06.991Z,82.50
2023-04-12T22:29:34.549Z,82.60
2023-04-12T22:32:02.452Z,82.70
2023-04-12T22:34:29.480Z,82.60
2023-04-12T22:36:58.956Z,82.60
2023-04-12T22:39:26.758Z,82.50
2023-04-12T22:41:53.941Z,82.30
2023-04-12T22:44:22.225Z,82.20
2023-04-12T22:46:49.801Z,82.20
2023-04-12T22:49:18.346Z,82.20
2023-04-12T22:51:45.503Z,82.30
2023-04-12T22:54:12.506Z,82.40
2023-04-12T22:56:45.166Z,82.50
2023-04-12T22:59:16.816Z,82.60
2023-04-12T23:01:47.249Z,82.70
2023-04-12T23:04:16.012Z,82.80
2023-04-12T23:06:44.241Z,82.90
2023-04-12T23:09:12.786Z,82.90
2023-04-12T23:11:41.139Z,83.00
2023-04-12T23:14:09.383Z,83.10
2023-04-12T23:16:42.562Z,83.10
2023-04-12T23:19:10.232Z,83.20
2023-04-12T23:21:37.225Z,83.20
2023-04-12T23:24:05.283Z,83.10
2023-04-12T23:26:34.389Z,83.30
2023-04-12T23:29:04.173Z,83.20
2023-04-12T23:31:32.332Z,83.20
2023-04-12T23:34:06.455Z,83.10
2023-04-12T23:36:33.847Z,82.80
2023-04-12T23:39:02.177Z,82.80
2023-04-12T23:41:31.686Z,82.80
2023-04-12T23:43:59.451Z,82.90
2023-04-12T23:46:26.899Z,82.90
2023-04-12T23:48:53.938Z,82.90
2023-04-12T23:51:22.080Z,82.90
2023-04-12T23:53:49.012Z,82.90
2023-04-12T23:56:16.081Z,82.90
2023-04-12T23:58:43.134Z,83.00
